KAZC

Colorado City Municipal Airport

Colorado City, Arizona, USA
METAR KAZC 211335Z AUTO 00000KT 10SM CLR 21/17 A3019 RMK AO2
Observed Flight Rules
Jul-21 @ 13:35 UTC (12 minutes ago) Visual Flight Rules
Visibility Clouds
10 miles
  • Clear skies
Temperatures Readings
Current 21°C / 70°F
Dewpoint 17°C / 63°F
Humidity 78%
Altimeter 30.19" Hg
Pressure 1022 hPa
Elevation 1486
METAR KAZC 211335Z AUTO 00000KT 10SM CLR 21/17 A3019 RMK AO2
Observed Flight Rules
Jul-21 @ 13:35 UTC
(12 minutes ago)
VFR
Clouds
  • Clear skies
Temperature Dewpoint
21°C / 70°F 17°C / 63°F
Humidity Altimeter Pressure
78% 30.19" Hg 1022 hPa